sensor_id;sensor_type;location;lat;lon;timestamp;temperature;humidity
40758;DHT22;26462;47.384;19.218;2022-11-22T00:00:40;3.00;99.90
40758;DHT22;26462;47.384;19.218;2022-11-22T00:03:08;3.20;99.90
40758;DHT22;26462;47.384;19.218;2022-11-22T00:05:35;3.00;99.90
40758;DHT22;26462;47.384;19.218;2022-11-22T00:08:02;3.00;99.90
40758;DHT22;26462;47.384;19.218;2022-11-22T00:10:30;3.00;99.90
40758;DHT22;26462;47.384;19.218;2022-11-22T00:12:57;2.90;99.90
40758;DHT22;26462;47.384;19.218;2022-11-22T00:15:25;2.90;99.90
40758;DHT22;26462;47.384;19.218;2022-11-22T00:17:52;2.90;99.90
40758;DHT22;26462;47.384;19.218;2022-11-22T00:20:19;3.00;99.90
40758;DHT22;26462;47.384;19.218;2022-11-22T00:22:46;3.10;99.90
40758;DHT22;26462;47.384;19.218;2022-11-22T00:25:13;2.90;99.90
40758;DHT22;26462;47.384;19.218;2022-11-22T00:27:41;3.00;99.90
40758;DHT22;26462;47.384;19.218;2022-11-22T00:30:08;3.00;99.90
40758;DHT22;26462;47.384;19.218;2022-11-22T00:32:36;3.00;99.90
40758;DHT22;26462;47.384;19.218;2022-11-22T00:35:03;3.00;99.90
40758;DHT22;26462;47.384;19.218;2022-11-22T00:37:31;3.00;99.90
40758;DHT22;26462;47.384;19.218;2022-11-22T00:39:58;3.10;99.90
40758;DHT22;26462;47.384;19.218;2022-11-22T00:42:25;3.10;99.90
40758;DHT22;26462;47.384;19.218;2022-11-22T00:44:52;3.00;99.90
40758;DHT22;26462;47.384;19.218;2022-11-22T00:47:19;3.00;99.90
40758;DHT22;26462;47.384;19.218;2022-11-22T00:49:46;3.00;99.90
40758;DHT22;26462;47.384;19.218;2022-11-22T00:52:13;3.00;99.90
40758;DHT22;26462;47.384;19.218;2022-11-22T00:54:40;3.00;99.90
40758;DHT22;26462;47.384;19.218;2022-11-22T00:57:07;3.00;99.90
40758;DHT22;26462;47.384;19.218;2022-11-22T00:59:34;2.90;99.90
40758;DHT22;26462;47.384;19.218;2022-11-22T01:02:01;3.00;99.90
40758;DHT22;26462;47.384;19.218;2022-11-22T01:04:28;3.00;99.90
40758;DHT22;26462;47.384;19.218;2022-11-22T01:06:55;3.00;99.90
40758;DHT22;26462;47.384;19.218;2022-11-22T01:09:23;3.00;99.90
40758;DHT22;26462;47.384;19.218;2022-11-22T01:11:50;3.00;99.90
40758;DHT22;26462;47.384;19.218;2022-11-22T01:14:18;3.40;99.90
40758;DHT22;26462;47.384;19.218;2022-11-22T01:16:46;3.70;99.90
40758;DHT22;26462;47.384;19.218;2022-11-22T01:19:14;3.00;99.90
40758;DHT22;26462;47.384;19.218;2022-11-22T01:21:41;3.00;99.90
40758;DHT22;26462;47.384;19.218;2022-11-22T01:24:09;3.00;99.90
40758;DHT22;26462;47.384;19.218;2022-11-22T01:26:36;3.00;99.90
40758;DHT22;26462;47.384;19.218;2022-11-22T01:29:03;3.00;99.90
40758;DHT22;26462;47.384;19.218;2022-11-22T01:31:31;3.40;99.90
40758;DHT22;26462;47.384;19.218;2022-11-22T01:33:58;2.90;99.90
40758;DHT22;26462;47.384;19.218;2022-11-22T01:36:26;2.90;99.90
40758;DHT22;26462;47.384;19.218;2022-11-22T01:38:53;2.90;99.90
40758;DHT22;26462;47.384;19.218;2022-11-22T01:41:21;2.90;99.90
40758;DHT22;26462;47.384;19.218;2022-11-22T01:43:48;2.80;99.90
40758;DHT22;26462;47.384;19.218;2022-11-22T01:46:31;2.80;99.90
40758;DHT22;26462;47.384;19.218;2022-11-22T01:51:36;2.80;99.90
40758;DHT22;26462;47.384;19.218;2022-11-22T01:54:08;2.90;99.90
40758;DHT22;26462;47.384;19.218;2022-11-22T01:56:36;2.90;99.90
40758;DHT22;26462;47.384;19.218;2022-11-22T01:59:10;2.90;99.90
40758;DHT22;26462;47.384;19.218;2022-11-22T02:01:39;3.00;99.90
40758;DHT22;26462;47.384;19.218;2022-11-22T02:04:08;2.80;99.90
40758;DHT22;26462;47.384;19.218;2022-11-22T02:07:02;2.90;99.90
40758;DHT22;26462;47.384;19.218;2022-11-22T02:09:31;2.90;99.90
40758;DHT22;26462;47.384;19.218;2022-11-22T02:12:01;2.80;99.90
40758;DHT22;26462;47.384;19.218;2022-11-22T02:14:30;2.90;99.90
40758;DHT22;26462;47.384;19.218;2022-11-22T02:16:57;3.00;99.90
40758;DHT22;26462;47.384;19.218;2022-11-22T02:22:03;2.90;99.90
40758;DHT22;26462;47.384;19.218;2022-11-22T02:24:49;3.00;99.90
40758;DHT22;26462;47.384;19.218;2022-11-22T02:27:18;2.90;99.90
40758;DHT22;26462;47.384;19.218;2022-11-22T02:29:45;2.80;99.90
40758;DHT22;26462;47.384;19.218;2022-11-22T02:32:12;2.80;99.90
40758;DHT22;26462;47.384;19.218;2022-11-22T02:34:48;2.80;99.90
40758;DHT22;26462;47.384;19.218;2022-11-22T02:37:19;2.70;99.90
40758;DHT22;26462;47.384;19.218;2022-11-22T02:39:49;2.80;99.90
40758;DHT22;26462;47.384;19.218;2022-11-22T02:42:17;2.80;99.90
40758;DHT22;26462;47.384;19.218;2022-11-22T02:44:45;2.70;99.90
40758;DHT22;26462;47.384;19.218;2022-11-22T02:47:12;2.70;99.90
40758;DHT22;26462;47.384;19.218;2022-11-22T02:49:38;2.60;99.90
40758;DHT22;26462;47.384;19.218;2022-11-22T02:52:05;2.80;99.90
40758;DHT22;26462;47.384;19.218;2022-11-22T02:54:32;2.70;99.90
40758;DHT22;26462;47.384;19.218;2022-11-22T02:57:01;2.90;99.90
40758;DHT22;26462;47.384;19.218;2022-11-22T02:59:28;2.60;99.90
40758;DHT22;26462;47.384;19.218;2022-11-22T03:01:56;2.60;99.90
40758;DHT22;26462;47.384;19.218;2022-11-22T03:04:29;2.50;99.90
40758;DHT22;26462;47.384;19.218;2022-11-22T03:06:57;2.50;99.90
40758;DHT22;26462;47.384;19.218;2022-11-22T03:09:25;2.50;99.90
40758;DHT22;26462;47.384;19.218;2022-11-22T03:11:54;2.50;99.90
40758;DHT22;26462;47.384;19.218;2022-11-22T03:14:22;2.50;99.90
40758;DHT22;26462;47.384;19.218;2022-11-22T03:16:49;2.50;99.90
40758;DHT22;26462;47.384;19.218;2022-11-22T03:19:16;2.50;99.90
40758;DHT22;26462;47.384;19.218;2022-11-22T03:21:44;2.50;99.90
40758;DHT22;26462;47.384;19.218;2022-11-22T03:24:11;2.40;99.90
40758;DHT22;26462;47.384;19.218;2022-11-22T03:26:38;2.30;99.90
40758;DHT22;26462;47.384;19.218;2022-11-22T03:29:05;2.30;99.90
40758;DHT22;26462;47.384;19.218;2022-11-22T03:31:32;2.60;99.90
40758;DHT22;26462;47.384;19.218;2022-11-22T03:33:59;2.40;99.90
40758;DHT22;26462;47.384;19.218;2022-11-22T03:36:26;2.30;99.90
40758;DHT22;26462;47.384;19.218;2022-11-22T03:38:53;2.70;99.90
40758;DHT22;26462;47.384;19.218;2022-11-22T03:41:20;2.40;99.90
40758;DHT22;26462;47.384;19.218;2022-11-22T03:43:47;2.40;99.90
40758;DHT22;26462;47.384;19.218;2022-11-22T03:46:16;3.00;99.90
40758;DHT22;26462;47.384;19.218;2022-11-22T03:48:43;2.40;99.90
40758;DHT22;26462;47.384;19.218;2022-11-22T03:51:11;2.30;99.90
40758;DHT22;26462;47.384;19.218;2022-11-22T03:53:38;2.40;99.90
40758;DHT22;26462;47.384;19.218;2022-11-22T03:56:05;2.40;99.90
40758;DHT22;26462;47.384;19.218;2022-11-22T03:58:32;2.30;99.90
40758;DHT22;26462;47.384;19.218;2022-11-22T04:00:59;2.30;99.90
40758;DHT22;26462;47.384;19.218;2022-11-22T04:03:27;2.20;99.90
40758;DHT22;26462;47.384;19.218;2022-11-22T04:05:54;2.20;99.90
40758;DHT22;26462;47.384;19.218;2022-11-22T04:08:21;2.30;99.90
40758;DHT22;26462;47.384;19.218;2022-11-22T04:10:49;2.20;99.90
40758;DHT22;26462;47.384;19.218;2022-11-22T04:13:17;2.20;99.90
40758;DHT22;26462;47.384;19.218;2022-11-22T04:15:44;2.50;99.90
40758;DHT22;26462;47.384;19.218;2022-11-22T04:18:12;2.40;99.90
40758;DHT22;26462;47.384;19.218;2022-11-22T04:20:40;2.30;99.90
40758;DHT22;26462;47.384;19.218;2022-11-22T04:23:26;2.20;99.90
40758;DHT22;26462;47.384;19.218;2022-11-22T04:25:59;2.10;99.90
40758;DHT22;26462;47.384;19.218;2022-11-22T04:28:26;2.50;99.90
40758;DHT22;26462;47.384;19.218;2022-11-22T04:31:13;2.10;99.90
40758;DHT22;26462;47.384;19.218;2022-11-22T04:33:59;2.30;99.90
40758;DHT22;26462;47.384;19.218;2022-11-22T04:36:26;2.60;99.90
40758;DHT22;26462;47.384;19.218;2022-11-22T04:38:53;2.10;99.90
40758;DHT22;26462;47.384;19.218;2022-11-22T04:41:20;2.00;99.90
40758;DHT22;26462;47.384;19.218;2022-11-22T04:43:47;2.00;99.90
40758;DHT22;26462;47.384;19.218;2022-11-22T04:46:32;2.20;99.90
40758;DHT22;26462;47.384;19.218;2022-11-22T04:48:59;2.00;99.90
40758;DHT22;26462;47.384;19.218;2022-11-22T04:51:26;2.00;99.90
40758;DHT22;26462;47.384;19.218;2022-11-22T04:54:12;1.90;99.90
40758;DHT22;26462;47.384;19.218;2022-11-22T04:56:39;1.90;99.90
40758;DHT22;26462;47.384;19.218;2022-11-22T04:59:06;1.90;99.90
40758;DHT22;26462;47.384;19.218;2022-11-22T05:01:33;1.80;99.90
40758;DHT22;26462;47.384;19.218;2022-11-22T05:04:00;2.40;99.90
40758;DHT22;26462;47.384;19.218;2022-11-22T05:06:27;2.00;99.90
40758;DHT22;26462;47.384;19.218;2022-11-22T05:08:54;1.70;99.90
40758;DHT22;26462;47.384;19.218;2022-11-22T05:11:21;1.70;99.90
40758;DHT22;26462;47.384;19.218;2022-11-22T05:13:48;1.70;99.90
40758;DHT22;26462;47.384;19.218;2022-11-22T05:16:15;1.70;99.90
40758;DHT22;26462;47.384;19.218;2022-11-22T05:18:42;1.70;99.90
40758;DHT22;26462;47.384;19.218;2022-11-22T05:21:11;2.30;99.90
40758;DHT22;26462;47.384;19.218;2022-11-22T05:23:39;2.80;99.90
40758;DHT22;26462;47.384;19.218;2022-11-22T05:26:29;1.70;99.90
40758;DHT22;26462;47.384;19.218;2022-11-22T05:28:57;1.70;99.90
40758;DHT22;26462;47.384;19.218;2022-11-22T05:31:25;1.70;99.90
40758;DHT22;26462;47.384;19.218;2022-11-22T05:33:55;1.70;99.90
40758;DHT22;26462;47.384;19.218;2022-11-22T05:36:23;1.70;99.90
40758;DHT22;26462;47.384;19.218;2022-11-22T05:38:50;1.70;99.90
40758;DHT22;26462;47.384;19.218;2022-11-22T05:41:18;1.70;99.90
40758;DHT22;26462;47.384;19.218;2022-11-22T05:43:45;1.70;99.90
40758;DHT22;26462;47.384;19.218;2022-11-22T05:46:18;1.70;99.90
40758;DHT22;26462;47.384;19.218;2022-11-22T05:48:52;1.70;99.90
40758;DHT22;26462;47.384;19.218;2022-11-22T05:51:22;1.60;99.90
40758;DHT22;26462;47.384;19.218;2022-11-22T05:53:53;1.60;99.90
40758;DHT22;26462;47.384;19.218;2022-11-22T05:56:22;1.60;99.90
40758;DHT22;26462;47.384;19.218;2022-11-22T05:58:50;1.60;99.90
40758;DHT22;26462;47.384;19.218;2022-11-22T06:01:22;1.50;99.90
40758;DHT22;26462;47.384;19.218;2022-11-22T06:03:50;1.50;99.90
40758;DHT22;26462;47.384;19.218;2022-11-22T06:06:17;1.50;99.90
40758;DHT22;26462;47.384;19.218;2022-11-22T06:08:45;1.50;99.90
40758;DHT22;26462;47.384;19.218;2022-11-22T06:13:44;1.80;99.90
40758;DHT22;26462;47.384;19.218;2022-11-22T06:16:11;1.50;99.90
40758;DHT22;26462;47.384;19.218;2022-11-22T06:18:39;1.50;99.90
40758;DHT22;26462;47.384;19.218;2022-11-22T06:21:14;1.60;99.90
40758;DHT22;26462;47.384;19.218;2022-11-22T06:23:42;1.60;99.90
40758;DHT22;26462;47.384;19.218;2022-11-22T06:26:14;1.60;99.90
40758;DHT22;26462;47.384;19.218;2022-11-22T06:28:42;1.90;99.90
40758;DHT22;26462;47.384;19.218;2022-11-22T06:31:23;1.60;99.90
40758;DHT22;26462;47.384;19.218;2022-11-22T06:33:56;1.60;99.90
40758;DHT22;26462;47.384;19.218;2022-11-22T06:36:31;1.60;99.90
40758;DHT22;26462;47.384;19.218;2022-11-22T06:38:59;1.70;99.90
40758;DHT22;26462;47.384;19.218;2022-11-22T06:41:32;1.80;99.90
40758;DHT22;26462;47.384;19.218;2022-11-22T06:44:03;1.80;99.90
40758;DHT22;26462;47.384;19.218;2022-11-22T06:46:31;1.80;99.90
40758;DHT22;26462;47.384;19.218;2022-11-22T06:48:58;1.80;99.90
40758;DHT22;26462;47.384;19.218;2022-11-22T06:51:28;1.80;99.90
40758;DHT22;26462;47.384;19.218;2022-11-22T06:53:56;1.80;99.90
40758;DHT22;26462;47.384;19.218;2022-11-22T06:56:29;2.50;99.90
40758;DHT22;26462;47.384;19.218;2022-11-22T06:58:56;1.90;99.90
40758;DHT22;26462;47.384;19.218;2022-11-22T07:01:26;1.90;99.90
40758;DHT22;26462;47.384;19.218;2022-11-22T07:03:58;1.90;99.90
40758;DHT22;26462;47.384;19.218;2022-11-22T07:06:27;2.00;99.90
40758;DHT22;26462;47.384;19.218;2022-11-22T07:08:55;2.00;99.90
40758;DHT22;26462;47.384;19.218;2022-11-22T07:11:24;2.00;99.90
40758;DHT22;26462;47.384;19.218;2022-11-22T07:13:53;2.10;99.90
40758;DHT22;26462;47.384;19.218;2022-11-22T07:16:20;2.10;99.90
40758;DHT22;26462;47.384;19.218;2022-11-22T07:18:48;2.10;99.90
40758;DHT22;26462;47.384;19.218;2022-11-22T07:21:17;2.10;99.90
40758;DHT22;26462;47.384;19.218;2022-11-22T07:23:47;2.10;99.90
40758;DHT22;26462;47.384;19.218;2022-11-22T07:26:22;2.10;99.90
40758;DHT22;26462;47.384;19.218;2022-11-22T07:28:52;2.10;99.90
40758;DHT22;26462;47.384;19.218;2022-11-22T07:31:20;2.30;99.90
40758;DHT22;26462;47.384;19.218;2022-11-22T07:33:47;2.20;99.90
40758;DHT22;26462;47.384;19.218;2022-11-22T07:36:17;2.20;99.90
40758;DHT22;26462;47.384;19.218;2022-11-22T07:38:45;2.30;99.90
40758;DHT22;26462;47.384;19.218;2022-11-22T07:41:15;2.40;99.90
40758;DHT22;26462;47.384;19.218;2022-11-22T07:43:43;2.30;99.90
40758;DHT22;26462;47.384;19.218;2022-11-22T07:46:26;2.60;99.90
40758;DHT22;26462;47.384;19.218;2022-11-22T07:49:00;2.70;99.90
40758;DHT22;26462;47.384;19.218;2022-11-22T07:51:28;2.30;99.90
40758;DHT22;26462;47.384;19.218;2022-11-22T07:53:56;2.30;99.90
40758;DHT22;26462;47.384;19.218;2022-11-22T07:56:24;3.00;99.90
40758;DHT22;26462;47.384;19.218;2022-11-22T07:58:51;2.60;99.90
40758;DHT22;26462;47.384;19.218;2022-11-22T08:01:18;3.00;99.90
40758;DHT22;26462;47.384;19.218;2022-11-22T08:03:47;2.50;99.90
40758;DHT22;26462;47.384;19.218;2022-11-22T08:06:15;2.70;99.90
40758;DHT22;26462;47.384;19.218;2022-11-22T08:08:43;2.80;99.90
40758;DHT22;26462;47.384;19.218;2022-11-22T08:11:10;2.90;99.90
40758;DHT22;26462;47.384;19.218;2022-11-22T08:13:38;4.00;99.90
40758;DHT22;26462;47.384;19.218;2022-11-22T08:16:11;2.90;99.90
40758;DHT22;26462;47.384;19.218;2022-11-22T08:18:40;3.30;99.90
40758;DHT22;26462;47.384;19.218;2022-11-22T08:21:10;3.80;99.90
40758;DHT22;26462;47.384;19.218;2022-11-22T08:23:37;3.10;99.90
40758;DHT22;26462;47.384;19.218;2022-11-22T08:26:06;3.30;99.90
40758;DHT22;26462;47.384;19.218;2022-11-22T08:28:34;3.80;99.90
40758;DHT22;26462;47.384;19.218;2022-11-22T08:31:07;3.10;99.90
40758;DHT22;26462;47.384;19.218;2022-11-22T08:33:35;3.20;99.90
40758;DHT22;26462;47.384;19.218;2022-11-22T08:36:03;3.20;99.90
40758;DHT22;26462;47.384;19.218;2022-11-22T08:38:31;3.10;99.90
40758;DHT22;26462;47.384;19.218;2022-11-22T08:40:58;3.30;99.90
40758;DHT22;26462;47.384;19.218;2022-11-22T08:43:25;4.80;99.90
40758;DHT22;26462;47.384;19.218;2022-11-22T08:45:57;3.30;99.90
40758;DHT22;26462;47.384;19.218;2022-11-22T08:48:25;3.30;99.90
40758;DHT22;26462;47.384;19.218;2022-11-22T08:50:55;3.50;99.90
40758;DHT22;26462;47.384;19.218;2022-11-22T08:53:23;4.10;99.90
40758;DHT22;26462;47.384;19.218;2022-11-22T08:55:50;4.00;99.90
40758;DHT22;26462;47.384;19.218;2022-11-22T08:58:18;3.60;99.90
40758;DHT22;26462;47.384;19.218;2022-11-22T09:00:45;3.60;99.90
40758;DHT22;26462;47.384;19.218;2022-11-22T09:03:12;3.70;99.90
40758;DHT22;26462;47.384;19.218;2022-11-22T09:05:40;3.70;99.90
40758;DHT22;26462;47.384;19.218;2022-11-22T09:08:31;3.70;99.90
40758;DHT22;26462;47.384;19.218;2022-11-22T09:11:11;4.80;99.90
40758;DHT22;26462;47.384;19.218;2022-11-22T09:13:40;4.00;99.90
40758;DHT22;26462;47.384;19.218;2022-11-22T09:16:10;4.00;99.90
40758;DHT22;26462;47.384;19.218;2022-11-22T09:18:38;4.10;99.90
40758;DHT22;26462;47.384;19.218;2022-11-22T09:21:09;4.10;99.90
40758;DHT22;26462;47.384;19.218;2022-11-22T09:23:37;4.20;99.90
40758;DHT22;26462;47.384;19.218;2022-11-22T09:26:09;4.50;99.90
40758;DHT22;26462;47.384;19.218;2022-11-22T09:28:37;4.40;99.90
40758;DHT22;26462;47.384;19.218;2022-11-22T09:31:05;4.50;99.90
40758;DHT22;26462;47.384;19.218;2022-11-22T09:33:34;4.50;99.90
40758;DHT22;26462;47.384;19.218;2022-11-22T09:38:30;4.60;99.90
40758;DHT22;26462;47.384;19.218;2022-11-22T09:40:58;4.60;99.90
40758;DHT22;26462;47.384;19.218;2022-11-22T09:49:34;4.90;99.90
40758;DHT22;26462;47.384;19.218;2022-11-22T09:52:14;5.00;99.90
40758;DHT22;26462;47.384;19.218;2022-11-22T09:54:59;5.10;99.90
40758;DHT22;26462;47.384;19.218;2022-11-22T09:57:32;5.10;99.90
40758;DHT22;26462;47.384;19.218;2022-11-22T10:00:06;5.10;99.90
40758;DHT22;26462;47.384;19.218;2022-11-22T10:02:46;5.20;99.90
40758;DHT22;26462;47.384;19.218;2022-11-22T10:05:33;5.30;99.90
40758;DHT22;26462;47.384;19.218;2022-11-22T10:11:06;5.40;99.90
40758;DHT22;26462;47.384;19.218;2022-11-22T10:13:50;5.50;99.90
40758;DHT22;26462;47.384;19.218;2022-11-22T10:16:31;5.40;99.90
40758;DHT22;26462;47.384;19.218;2022-11-22T10:19:14;5.40;99.90
40758;DHT22;26462;47.384;19.218;2022-11-22T10:21:43;5.40;99.90
40758;DHT22;26462;47.384;19.218;2022-11-22T10:24:17;5.50;99.90
40758;DHT22;26462;47.384;19.218;2022-11-22T10:26:45;5.50;99.90
40758;DHT22;26462;47.384;19.218;2022-11-22T10:29:41;5.60;99.90
40758;DHT22;26462;47.384;19.218;2022-11-22T10:37:23;5.50;99.90
40758;DHT22;26462;47.384;19.218;2022-11-22T10:40:09;5.50;99.90
40758;DHT22;26462;47.384;19.218;2022-11-22T10:45:46;5.40;99.90
40758;DHT22;26462;47.384;19.218;2022-11-22T10:54:22;5.60;99.90
40758;DHT22;26462;47.384;19.218;2022-11-22T10:56:59;5.70;99.90
40758;DHT22;26462;47.384;19.218;2022-11-22T11:02:02;5.90;99.90
40758;DHT22;26462;47.384;19.218;2022-11-22T11:04:38;6.00;99.90
40758;DHT22;26462;47.384;19.218;2022-11-22T11:07:20;6.00;99.90
40758;DHT22;26462;47.384;19.218;2022-11-22T11:09:55;6.10;99.90
40758;DHT22;26462;47.384;19.218;2022-11-22T11:15:18;6.20;99.90
40758;DHT22;26462;47.384;19.218;2022-11-22T11:17:50;6.20;99.90
40758;DHT22;26462;47.384;19.218;2022-11-22T11:20:26;6.40;99.90
40758;DHT22;26462;47.384;19.218;2022-11-22T11:22:55;6.40;99.90
40758;DHT22;26462;47.384;19.218;2022-11-22T11:25:42;6.40;99.90
40758;DHT22;26462;47.384;19.218;2022-11-22T11:28:23;6.50;99.90
40758;DHT22;26462;47.384;19.218;2022-11-22T11:31:05;6.50;99.90
40758;DHT22;26462;47.384;19.218;2022-11-22T11:33:35;6.60;99.90
40758;DHT22;26462;47.384;19.218;2022-11-22T11:36:20;6.50;99.90
40758;DHT22;26462;47.384;19.218;2022-11-22T11:38:56;6.60;99.90
40758;DHT22;26462;47.384;19.218;2022-11-22T11:41:27;6.50;99.90
40758;DHT22;26462;47.384;19.218;2022-11-22T11:44:03;6.50;99.90
40758;DHT22;26462;47.384;19.218;2022-11-22T11:46:44;6.40;99.90
40758;DHT22;26462;47.384;19.218;2022-11-22T11:49:16;6.50;99.90
40758;DHT22;26462;47.384;19.218;2022-11-22T11:51:46;6.50;99.90
40758;DHT22;26462;47.384;19.218;2022-11-22T11:54:15;6.50;99.90
40758;DHT22;26462;47.384;19.218;2022-11-22T11:59:20;6.60;99.90
40758;DHT22;26462;47.384;19.218;2022-11-22T12:01:54;6.60;99.90
40758;DHT22;26462;47.384;19.218;2022-11-22T12:04:30;6.60;99.90
40758;DHT22;26462;47.384;19.218;2022-11-22T12:07:23;6.60;99.90
40758;DHT22;26462;47.384;19.218;2022-11-22T12:09:51;6.60;99.90
40758;DHT22;26462;47.384;19.218;2022-11-22T12:15:24;6.70;99.90
40758;DHT22;26462;47.384;19.218;2022-11-22T12:21:01;6.70;99.90
40758;DHT22;26462;47.384;19.218;2022-11-22T12:23:41;6.50;99.90
40758;DHT22;26462;47.384;19.218;2022-11-22T12:26:17;6.40;99.90
40758;DHT22;26462;47.384;19.218;2022-11-22T12:28:44;6.30;99.90
40758;DHT22;26462;47.384;19.218;2022-11-22T12:37:14;6.40;99.90
40758;DHT22;26462;47.384;19.218;2022-11-22T12:39:48;6.40;99.90
40758;DHT22;26462;47.384;19.218;2022-11-22T12:42:20;6.30;99.90
40758;DHT22;26462;47.384;19.218;2022-11-22T12:45:03;6.30;99.90
40758;DHT22;26462;47.384;19.218;2022-11-22T12:47:36;6.20;99.90
40758;DHT22;26462;47.384;19.218;2022-11-22T12:50:17;6.10;99.90
40758;DHT22;26462;47.384;19.218;2022-11-22T12:52:51;6.10;99.90
40758;DHT22;26462;47.384;19.218;2022-11-22T12:55:24;6.00;99.90
40758;DHT22;26462;47.384;19.218;2022-11-22T12:58:19;6.00;99.90
40758;DHT22;26462;47.384;19.218;2022-11-22T13:01:03;6.00;99.90
40758;DHT22;26462;47.384;19.218;2022-11-22T13:03:41;5.90;99.90
40758;DHT22;26462;47.384;19.218;2022-11-22T13:06:10;5.80;99.90
40758;DHT22;26462;47.384;19.218;2022-11-22T13:09:05;5.80;99.90
40758;DHT22;26462;47.384;19.218;2022-11-22T13:14:42;5.80;99.90
40758;DHT22;26462;47.384;19.218;2022-11-22T13:17:12;5.80;99.90
40758;DHT22;26462;47.384;19.218;2022-11-22T13:19:54;5.80;99.90
40758;DHT22;26462;47.384;19.218;2022-11-22T13:25:44;5.70;99.90
40758;DHT22;26462;47.384;19.218;2022-11-22T13:28:16;5.70;99.90
40758;DHT22;26462;47.384;19.218;2022-11-22T13:31:14;5.60;99.90
40758;DHT22;26462;47.384;19.218;2022-11-22T13:33:53;5.60;99.90
40758;DHT22;26462;47.384;19.218;2022-11-22T13:36:36;5.60;99.90
40758;DHT22;26462;47.384;19.218;2022-11-22T13:39:11;5.50;99.90
40758;DHT22;26462;47.384;19.218;2022-11-22T13:46:54;5.60;99.90
40758;DHT22;26462;47.384;19.218;2022-11-22T13:49:36;5.50;99.90
40758;DHT22;26462;47.384;19.218;2022-11-22T14:05:37;5.40;99.90
40758;DHT22;26462;47.384;19.218;2022-11-22T14:18:48;5.20;99.90
40758;DHT22;26462;47.384;19.218;2022-11-22T14:30:22;5.10;99.90
40758;DHT22;26462;47.384;19.218;2022-11-22T14:33:01;5.10;99.90
40758;DHT22;26462;47.384;19.218;2022-11-22T14:35:34;5.10;99.90
40758;DHT22;26462;47.384;19.218;2022-11-22T14:44:14;5.00;99.90
40758;DHT22;26462;47.384;19.218;2022-11-22T14:47:03;5.00;99.90
40758;DHT22;26462;47.384;19.218;2022-11-22T14:49:37;5.00;99.90
40758;DHT22;26462;47.384;19.218;2022-11-22T14:52:20;5.00;99.90
40758;DHT22;26462;47.384;19.218;2022-11-22T14:54:53;5.00;99.90
40758;DHT22;26462;47.384;19.218;2022-11-22T14:57:24;5.00;99.90
40758;DHT22;26462;47.384;19.218;2022-11-22T15:00:16;4.90;99.90
40758;DHT22;26462;47.384;19.218;2022-11-22T15:06:18;4.90;99.90
40758;DHT22;26462;47.384;19.218;2022-11-22T15:17:53;4.90;99.90
40758;DHT22;26462;47.384;19.218;2022-11-22T15:20:43;4.90;99.90
40758;DHT22;26462;47.384;19.218;2022-11-22T15:23:30;4.80;99.90
40758;DHT22;26462;47.384;19.218;2022-11-22T15:26:23;4.80;99.90
40758;DHT22;26462;47.384;19.218;2022-11-22T15:29:17;4.80;99.90
40758;DHT22;26462;47.384;19.218;2022-11-22T15:31:57;4.80;99.90
40758;DHT22;26462;47.384;19.218;2022-11-22T15:34:45;4.80;99.90
40758;DHT22;26462;47.384;19.218;2022-11-22T15:37:49;4.80;99.90
40758;DHT22;26462;47.384;19.218;2022-11-22T15:40:40;4.80;99.90
40758;DHT22;26462;47.384;19.218;2022-11-22T15:43:27;4.80;99.90
40758;DHT22;26462;47.384;19.218;2022-11-22T15:46:16;4.80;99.90
40758;DHT22;26462;47.384;19.218;2022-11-22T15:49:04;4.70;99.90
40758;DHT22;26462;47.384;19.218;2022-11-22T15:51:52;4.70;99.90
40758;DHT22;26462;47.384;19.218;2022-11-22T15:54:41;4.70;99.90
40758;DHT22;26462;47.384;19.218;2022-11-22T15:57:29;4.70;99.90
40758;DHT22;26462;47.384;19.218;2022-11-22T15:59:58;4.70;99.90
40758;DHT22;26462;47.384;19.218;2022-11-22T16:02:28;4.70;99.90
40758;DHT22;26462;47.384;19.218;2022-11-22T16:05:04;4.70;99.90
40758;DHT22;26462;47.384;19.218;2022-11-22T16:07:52;4.70;99.90
40758;DHT22;26462;47.384;19.218;2022-11-22T16:10:24;4.70;99.90
40758;DHT22;26462;47.384;19.218;2022-11-22T16:12:53;4.70;99.90
40758;DHT22;26462;47.384;19.218;2022-11-22T16:15:31;4.70;99.90
40758;DHT22;26462;47.384;19.218;2022-11-22T16:20:35;4.60;99.90
40758;DHT22;26462;47.384;19.218;2022-11-22T16:25:37;4.60;99.90
40758;DHT22;26462;47.384;19.218;2022-11-22T16:28:28;4.60;99.90
40758;DHT22;26462;47.384;19.218;2022-11-22T16:31:04;4.60;99.90
40758;DHT22;26462;47.384;19.218;2022-11-22T16:33:33;4.60;99.90
40758;DHT22;26462;47.384;19.218;2022-11-22T16:36:01;4.70;99.90
40758;DHT22;26462;47.384;19.218;2022-11-22T16:38:28;4.60;99.90
40758;DHT22;26462;47.384;19.218;2022-11-22T16:40:57;4.60;99.90
40758;DHT22;26462;47.384;19.218;2022-11-22T16:43:26;4.60;99.90
40758;DHT22;26462;47.384;19.218;2022-11-22T16:45:58;4.60;99.90
40758;DHT22;26462;47.384;19.218;2022-11-22T16:48:25;4.60;99.90
40758;DHT22;26462;47.384;19.218;2022-11-22T16:51:18;4.50;99.90
40758;DHT22;26462;47.384;19.218;2022-11-22T16:53:48;4.60;99.90
40758;DHT22;26462;47.384;19.218;2022-11-22T16:56:20;4.60;99.90
40758;DHT22;26462;47.384;19.218;2022-11-22T16:58:49;4.60;99.90
40758;DHT22;26462;47.384;19.218;2022-11-22T17:01:19;4.60;99.90
40758;DHT22;26462;47.384;19.218;2022-11-22T17:03:49;4.60;99.90
40758;DHT22;26462;47.384;19.218;2022-11-22T17:06:19;4.60;99.90
40758;DHT22;26462;47.384;19.218;2022-11-22T17:08:49;4.60;99.90
40758;DHT22;26462;47.384;19.218;2022-11-22T17:11:18;4.60;99.90
40758;DHT22;26462;47.384;19.218;2022-11-22T17:13:47;4.60;99.90
40758;DHT22;26462;47.384;19.218;2022-11-22T17:16:15;4.60;99.90
40758;DHT22;26462;47.384;19.218;2022-11-22T17:18:44;4.60;99.90
40758;DHT22;26462;47.384;19.218;2022-11-22T17:23:47;4.60;99.90
40758;DHT22;26462;47.384;19.218;2022-11-22T17:26:16;4.70;99.90
40758;DHT22;26462;47.384;19.218;2022-11-22T17:28:43;4.60;99.90
40758;DHT22;26462;47.384;19.218;2022-11-22T17:31:16;4.70;99.90
40758;DHT22;26462;47.384;19.218;2022-11-22T17:33:47;4.60;99.90
40758;DHT22;26462;47.384;19.218;2022-11-22T17:36:28;4.70;99.90
40758;DHT22;26462;47.384;19.218;2022-11-22T17:38:56;4.70;99.90
40758;DHT22;26462;47.384;19.218;2022-11-22T17:41:27;4.70;99.90
40758;DHT22;26462;47.384;19.218;2022-11-22T17:43:57;4.70;99.90
40758;DHT22;26462;47.384;19.218;2022-11-22T17:46:28;4.70;99.90
40758;DHT22;26462;47.384;19.218;2022-11-22T17:48:59;4.70;99.90
40758;DHT22;26462;47.384;19.218;2022-11-22T17:51:28;4.70;99.90
40758;DHT22;26462;47.384;19.218;2022-11-22T17:53:56;4.70;99.90
40758;DHT22;26462;47.384;19.218;2022-11-22T17:56:27;4.80;99.90
40758;DHT22;26462;47.384;19.218;2022-11-22T17:58:56;4.70;99.90
40758;DHT22;26462;47.384;19.218;2022-11-22T18:01:23;4.80;99.90
40758;DHT22;26462;47.384;19.218;2022-11-22T18:03:51;4.70;99.90